createdAt,value
2023-01-23T00:02:15.766Z,71.41
2023-01-23T00:04:42.386Z,71.44
2023-01-23T00:07:09.451Z,71.58
2023-01-23T00:09:40.915Z,71.69
2023-01-23T00:12:09.683Z,71.73
2023-01-23T00:14:36.273Z,72.22
2023-01-23T00:17:03.010Z,72.23
2023-01-23T00:19:31.995Z,71.66
2023-01-23T00:22:01.130Z,71.74
2023-01-23T00:24:30.585Z,72.01
2023-01-23T00:26:59.677Z,72.19
2023-01-23T00:29:26.629Z,72.14
2023-01-23T00:31:53.705Z,72.07
2023-01-23T00:34:24.619Z,71.90
2023-01-23T00:36:51.580Z,72.07
2023-01-23T00:39:25.800Z,72.10
2023-01-23T00:41:54.881Z,71.81
2023-01-23T00:44:23.806Z,71.40
2023-01-23T00:46:50.957Z,71.56
2023-01-23T00:49:24.505Z,71.48
2023-01-23T00:51:51.735Z,71.35
2023-01-23T00:54:21.633Z,71.39
2023-01-23T00:56:52.822Z,71.25
2023-01-23T00:59:22.530Z,71.10
2023-01-23T01:01:50.326Z,71.13
2023-01-23T01:04:19.541Z,71.23
2023-01-23T01:06:46.299Z,71.15
2023-01-23T01:09:13.578Z,70.86
2023-01-23T01:11:40.264Z,70.97
2023-01-23T01:14:06.880Z,70.53
2023-01-23T01:16:33.578Z,70.42
2023-01-23T01:19:00.303Z,70.33
2023-01-23T01:21:26.892Z,70.31
2023-01-23T01:23:53.725Z,70.58
2023-01-23T01:26:23.035Z,70.69
2023-01-23T01:28:50.474Z,70.57
2023-01-23T01:31:19.930Z,71.37
2023-01-23T01:33:48.632Z,71.59
2023-01-23T01:36:18.031Z,71.66
2023-01-23T01:38:48.805Z,71.48
2023-01-23T01:41:20.725Z,71.63
2023-01-23T01:43:51.150Z,71.33
2023-01-23T01:46:20.142Z,71.59
2023-01-23T01:49:09.612Z,71.84
2023-01-23T01:51:38.691Z,71.81
2023-01-23T01:54:11.474Z,71.74
2023-01-23T01:56:51.617Z,71.63
2023-01-23T01:59:21.412Z,71.61
2023-01-23T02:01:48.751Z,71.58
2023-01-23T02:04:15.791Z,71.55
2023-01-23T02:06:42.870Z,71.52
2023-01-23T02:09:11.478Z,71.43
2023-01-23T02:11:41.717Z,70.87
2023-01-23T02:14:08.489Z,70.94
2023-01-23T02:16:40.388Z,70.99
2023-01-23T02:19:18.337Z,70.67
2023-01-23T02:21:48.668Z,70.78
2023-01-23T02:24:24.567Z,70.98
2023-01-23T02:26:57.449Z,70.70
2023-01-23T02:29:29.217Z,70.83
2023-01-23T02:31:59.746Z,71.03
2023-01-23T02:34:34.128Z,70.40
2023-01-23T02:37:08.532Z,69.86
2023-01-23T02:39:37.660Z,69.94
2023-01-23T02:42:04.860Z,70.12
2023-01-23T02:44:53.832Z,70.20
2023-01-23T02:47:23.161Z,70.11
2023-01-23T02:49:55.341Z,70.23
2023-01-23T02:52:23.096Z,70.72
2023-01-23T02:54:52.820Z,70.55
2023-01-23T02:57:19.924Z,70.85
2023-01-23T03:00:06.224Z,70.57
2023-01-23T03:02:35.203Z,70.52
2023-01-23T03:05:01.919Z,70.02
2023-01-23T03:07:30.954Z,70.17
2023-01-23T03:10:00.206Z,70.11
2023-01-23T03:12:26.810Z,69.93
2023-01-23T03:14:55.052Z,69.98
2023-01-23T03:17:22.105Z,70.11
2023-01-23T03:19:49.144Z,70.15
2023-01-23T03:22:18.314Z,70.13
2023-01-23T03:24:47.116Z,69.85
2023-01-23T03:27:13.885Z,69.95
2023-01-23T03:30:06.075Z,70.16
2023-01-23T03:32:32.741Z,69.74
2023-01-23T03:34:59.577Z,69.78
2023-01-23T03:37:26.459Z,69.55
2023-01-23T03:40:13.271Z,69.30
2023-01-23T03:42:42.284Z,69.39
2023-01-23T03:45:14.292Z,69.44
2023-01-23T03:47:44.012Z,69.32
2023-01-23T03:50:11.368Z,69.13
2023-01-23T03:52:39.474Z,69.00
2023-01-23T03:55:09.235Z,69.16
2023-01-23T03:57:36.777Z,68.85
2023-01-23T04:00:04.480Z,68.52
2023-01-23T04:02:57.239Z,68.48
2023-01-23T04:05:24.049Z,68.69
2023-01-23T04:07:53.703Z,68.56
2023-01-23T04:10:20.958Z,69.03
2023-01-23T04:12:55.418Z,68.71
2023-01-23T04:15:22.694Z,68.21
2023-01-23T04:17:51.359Z,68.49
2023-01-23T04:20:20.819Z,68.14
2023-01-23T04:22:50.436Z,68.16
2023-01-23T04:25:20.541Z,68.10
2023-01-23T04:27:47.912Z,67.90
2023-01-23T04:30:19.974Z,68.27
2023-01-23T04:32:47.005Z,67.98
2023-01-23T04:35:16.309Z,67.66
2023-01-23T04:37:43.940Z,67.79
2023-01-23T04:40:11.333Z,67.66
2023-01-23T04:42:49.059Z,67.25
2023-01-23T04:45:39.010Z,67.45
2023-01-23T04:48:24.659Z,67.25
2023-01-23T04:50:56.647Z,67.18
2023-01-23T04:53:28.190Z,67.33
2023-01-23T04:56:01.297Z,67.22
2023-01-23T04:58:28.875Z,66.97
2023-01-23T05:01:02.666Z,67.49
2023-01-23T05:03:33.103Z,67.25
2023-01-23T05:06:02.181Z,67.54
2023-01-23T05:08:28.987Z,66.96
2023-01-23T05:11:09.303Z,67.20
2023-01-23T05:13:36.193Z,67.04
2023-01-23T05:16:02.882Z,66.75
2023-01-23T05:18:37.354Z,66.93
2023-01-23T05:21:06.636Z,66.71
2023-01-23T05:23:35.697Z,66.62
2023-01-23T05:26:07.501Z,66.49
2023-01-23T05:28:34.233Z,66.11
2023-01-23T05:31:07.065Z,65.96
2023-01-23T05:33:43.058Z,66.07
2023-01-23T05:36:10.597Z,66.07
2023-01-23T05:38:40.402Z,66.35
2023-01-23T05:41:12.418Z,66.41
2023-01-23T05:44:08.683Z,66.51
2023-01-23T05:46:50.462Z,66.67
2023-01-23T05:49:20.306Z,66.81
2023-01-23T05:51:47.259Z,66.48
2023-01-23T05:54:14.195Z,66.74
2023-01-23T05:56:44.951Z,66.94
2023-01-23T05:59:40.636Z,66.80
2023-01-23T06:02:41.837Z,66.69
2023-01-23T06:05:15.140Z,66.64
2023-01-23T06:08:00.031Z,66.31
2023-01-23T06:10:29.887Z,66.68
2023-01-23T06:12:56.691Z,66.12
2023-01-23T06:15:23.343Z,66.06
2023-01-23T06:17:56.164Z,66.10
2023-01-23T06:20:24.612Z,66.07
2023-01-23T06:22:51.837Z,65.54
2023-01-23T06:25:21.155Z,65.64
2023-01-23T06:27:48.192Z,66.03
2023-01-23T06:30:14.895Z,65.83
2023-01-23T06:32:45.030Z,66.29
2023-01-23T06:35:18.835Z,66.51
2023-01-23T06:37:45.780Z,65.88
2023-01-23T06:40:15.723Z,66.11
2023-01-23T06:42:54.291Z,65.94
2023-01-23T06:45:21.182Z,66.12
2023-01-23T06:47:52.755Z,66.00
2023-01-23T06:50:22.948Z,65.86
2023-01-23T06:52:49.938Z,65.63
2023-01-23T06:55:18.022Z,65.87
2023-01-23T06:57:49.962Z,65.65
2023-01-23T07:00:17.946Z,66.10
2023-01-23T07:02:47.008Z,65.52
2023-01-23T07:05:15.850Z,65.31
2023-01-23T07:07:46.716Z,65.03
2023-01-23T07:10:13.641Z,65.02
2023-01-23T07:12:48.324Z,65.11
2023-01-23T07:15:15.183Z,64.94
2023-01-23T07:17:41.894Z,64.72
2023-01-23T07:20:08.981Z,65.00
2023-01-23T07:22:47.690Z,64.98
2023-01-23T07:25:14.357Z,65.00
2023-01-23T07:27:48.269Z,64.26
2023-01-23T07:30:15.007Z,64.17
2023-01-23T07:32:44.867Z,64.64
2023-01-23T07:35:11.896Z,63.96
2023-01-23T07:37:38.566Z,63.60
2023-01-23T07:40:05.355Z,63.59
2023-01-23T07:42:37.033Z,63.56
2023-01-23T07:45:09.724Z,63.85
2023-01-23T07:47:40.144Z,62.68
2023-01-23T07:50:12.942Z,62.47
2023-01-23T07:52:42.855Z,62.89
2023-01-23T07:55:09.657Z,62.89
2023-01-23T07:57:38.867Z,62.68
2023-01-23T08:00:06.085Z,62.54
2023-01-23T08:02:42.342Z,62.55
2023-01-23T08:05:11.182Z,61.83
2023-01-23T08:07:37.910Z,61.66
2023-01-23T08:10:07.757Z,60.68
2023-01-23T08:12:36.838Z,61.35
2023-01-23T08:15:06.410Z,60.63
2023-01-23T08:17:43.536Z,61.32
2023-01-23T08:20:11.117Z,61.02
2023-01-23T08:22:41.127Z,60.62
2023-01-23T08:25:09.840Z,60.91
2023-01-23T08:27:46.464Z,61.20
2023-01-23T08:30:15.503Z,60.98
2023-01-23T08:32:42.027Z,60.73
2023-01-23T08:35:09.095Z,60.46
2023-01-23T08:37:37.015Z,59.62
2023-01-23T08:40:04.288Z,59.76
2023-01-23T08:42:30.991Z,59.93
2023-01-23T08:44:57.594Z,59.62
2023-01-23T08:47:24.176Z,59.05
2023-01-23T08:49:53.649Z,60.25
2023-01-23T08:52:20.275Z,59.96
2023-01-23T08:54:49.394Z,60.87
2023-01-23T08:57:16.052Z,60.18
2023-01-23T08:59:47.645Z,59.55
2023-01-23T09:02:16.813Z,60.37
2023-01-23T09:04:46.782Z,60.12
2023-01-23T09:07:13.677Z,61.02
2023-01-23T09:09:40.392Z,59.95
2023-01-23T09:12:09.198Z,60.39
2023-01-23T09:14:40.618Z,59.40
2023-01-23T09:17:08.197Z,60.21
2023-01-23T09:19:35.093Z,59.43
2023-01-23T09:22:04.553Z,59.83
2023-01-23T09:24:31.415Z,59.17
2023-01-23T09:27:03.223Z,58.69
2023-01-23T09:29:34.466Z,59.60
2023-01-23T09:32:02.119Z,59.57
2023-01-23T09:34:29.355Z,59.82
2023-01-23T09:36:58.566Z,59.99
2023-01-23T09:39:25.529Z,58.70
2023-01-23T09:41:52.401Z,58.72
2023-01-23T09:44:23.391Z,58.53
2023-01-23T09:46:50.110Z,57.96
2023-01-23T09:49:22.923Z,56.48
2023-01-23T09:51:52.770Z,57.56
2023-01-23T09:54:25.913Z,57.52
2023-01-23T09:56:52.584Z,57.53
2023-01-23T09:59:40.379Z,56.32
2023-01-23T10:02:14.356Z,56.13
2023-01-23T10:04:43.348Z,55.30
2023-01-23T10:07:18.332Z,56.31
2023-01-23T10:10:00.345Z,55.71
2023-01-23T10:12:44.444Z,54.66
2023-01-23T10:15:16.465Z,53.18
2023-01-23T10:18:01.411Z,52.89
2023-01-23T10:20:52.140Z,51.71
2023-01-23T10:23:18.824Z,50.67
2023-01-23T10:25:45.412Z,50.92
2023-01-23T10:28:12.135Z,51.85
2023-01-23T10:30:43.585Z,51.32
2023-01-23T10:33:10.263Z,51.87
2023-01-23T10:35:40.137Z,51.46
2023-01-23T10:38:25.389Z,51.02
2023-01-23T10:41:11.226Z,52.16
2023-01-23T10:43:38.313Z,51.69
2023-01-23T10:46:09.019Z,50.54
2023-01-23T10:48:38.141Z,51.24
2023-01-23T10:51:26.523Z,49.81
2023-01-23T10:54:22.636Z,50.94
2023-01-23T10:56:59.441Z,49.79
2023-01-23T10:59:29.044Z,48.56
2023-01-23T11:01:58.956Z,50.29
2023-01-23T11:04:31.890Z,49.12
2023-01-23T11:07:10.123Z,49.39
2023-01-23T11:09:51.703Z,50.99
2023-01-23T11:12:20.122Z,51.34
2023-01-23T11:14:49.231Z,50.70
2023-01-23T11:17:15.933Z,51.08
2023-01-23T11:19:46.030Z,50.06
2023-01-23T11:22:31.635Z,50.25
2023-01-23T11:25:00.368Z,48.61
2023-01-23T11:27:29.828Z,47.35
2023-01-23T11:30:09.092Z,46.44
2023-01-23T11:32:38.577Z,45.91
2023-01-23T11:35:31.578Z,46.56
2023-01-23T11:38:01.035Z,43.76
2023-01-23T11:40:27.623Z,44.51
2023-01-23T11:42:54.383Z,44.00
2023-01-23T11:45:24.022Z,42.91
2023-01-23T11:48:00.816Z,44.14
2023-01-23T11:50:29.923Z,42.87
2023-01-23T11:53:07.930Z,43.17
2023-01-23T11:55:53.549Z,44.21
2023-01-23T11:58:37.114Z,43.71
2023-01-23T12:01:09.041Z,43.79
2023-01-23T12:03:41.972Z,44.16
2023-01-23T12:09:04.234Z,44.34
2023-01-23T12:11:52.822Z,44.77
2023-01-23T12:14:34.685Z,43.34
2023-01-23T12:17:27.423Z,43.20
2023-01-23T12:20:00.722Z,42.29
2023-01-23T12:22:46.252Z,43.11
2023-01-23T12:25:16.034Z,42.24
2023-01-23T12:27:47.053Z,42.36
2023-01-23T12:30:31.411Z,42.25
2023-01-23T12:33:17.295Z,43.11
2023-01-23T12:36:02.676Z,41.85
2023-01-23T12:38:31.243Z,40.91
2023-01-23T12:41:09.251Z,41.01
2023-01-23T12:43:56.165Z,41.23
2023-01-23T12:46:24.188Z,41.25
2023-01-23T12:48:59.454Z,41.23
2023-01-23T12:51:37.569Z,41.60
2023-01-23T12:54:05.349Z,42.22
2023-01-23T12:56:36.464Z,42.23
2023-01-23T12:59:11.133Z,41.92
2023-01-23T13:01:50.176Z,41.84
2023-01-23T13:04:16.868Z,41.34
2023-01-23T13:06:43.431Z,41.19
2023-01-23T13:09:24.472Z,40.43
2023-01-23T13:12:00.545Z,40.48
2023-01-23T13:14:34.776Z,41.16
2023-01-23T13:17:32.193Z,39.87
2023-01-23T13:20:39.310Z,40.09
2023-01-23T13:23:35.624Z,39.68
2023-01-23T13:26:23.172Z,39.07
2023-01-23T13:28:51.564Z,37.32
2023-01-23T13:31:37.125Z,37.31
2023-01-23T13:34:17.832Z,37.96
2023-01-23T13:36:47.311Z,38.14
2023-01-23T13:39:16.391Z,38.57
2023-01-23T13:41:43.380Z,40.05
2023-01-23T13:44:22.969Z,40.09
2023-01-23T14:31:58.139Z,44.37
2023-01-23T14:34:27.463Z,44.05
2023-01-23T14:37:09.628Z,44.58
2023-01-23T14:39:36.276Z,44.45
2023-01-23T14:42:09.574Z,44.65
2023-01-23T14:44:38.685Z,44.34
2023-01-23T14:47:10.542Z,44.93
2023-01-23T14:49:37.255Z,45.19
2023-01-23T14:52:07.715Z,44.72
2023-01-23T14:54:36.731Z,45.40
2023-01-23T14:57:09.192Z,45.51
2023-01-23T14:59:44.447Z,45.88
2023-01-23T15:02:31.430Z,46.25
2023-01-23T15:05:13.780Z,46.91
2023-01-23T15:07:47.324Z,46.88
2023-01-23T15:10:17.878Z,46.71
2023-01-23T15:13:03.519Z,47.08
2023-01-23T15:15:30.725Z,47.22
2023-01-23T15:17:58.609Z,47.65
2023-01-23T15:20:31.927Z,48.04
2023-01-23T15:22:59.002Z,48.05
2023-01-23T15:25:31.591Z,48.14
2023-01-23T15:28:00.679Z,48.58
2023-01-23T15:30:31.272Z,48.55
2023-01-23T15:33:07.657Z,48.82
2023-01-23T15:35:38.854Z,49.07
2023-01-23T15:38:09.617Z,49.31
2023-01-23T15:40:38.276Z,49.69
2023-01-23T15:43:14.016Z,49.81
2023-01-23T15:45:40.854Z,50.10
2023-01-23T15:48:08.371Z,50.26
2023-01-23T15:50:35.115Z,50.46
2023-01-23T15:53:01.776Z,50.72
2023-01-23T15:55:30.836Z,50.89
2023-01-23T15:57:57.566Z,51.43
2023-01-23T16:00:25.470Z,51.55
2023-01-23T16:02:56.747Z,51.65
2023-01-23T16:05:24.916Z,52.17
2023-01-23T16:07:51.528Z,52.21
2023-01-23T16:10:19.216Z,52.24
2023-01-23T16:12:54.381Z,52.38
2023-01-23T16:15:28.518Z,52.45
2023-01-23T16:17:55.665Z,52.64
2023-01-23T16:20:24.990Z,52.80
2023-01-23T16:22:55.065Z,53.08
2023-01-23T16:25:24.999Z,53.22
2023-01-23T16:28:01.390Z,53.54
2023-01-23T16:30:28.413Z,53.75
2023-01-23T16:32:56.736Z,53.35
2023-01-23T16:35:26.429Z,53.27
2023-01-23T16:37:55.920Z,53.36
2023-01-23T16:40:25.518Z,53.26
2023-01-23T16:42:52.598Z,53.25
2023-01-23T16:45:19.597Z,53.28
2023-01-23T16:47:46.712Z,53.62
2023-01-23T16:50:14.187Z,53.49
2023-01-23T16:52:45.515Z,53.54
2023-01-23T16:55:16.550Z,54.20
2023-01-23T16:57:45.909Z,54.00
2023-01-23T17:00:33.505Z,53.94
2023-01-23T17:03:01.941Z,53.85
2023-01-23T17:05:29.051Z,53.78
2023-01-23T17:07:55.716Z,53.69
2023-01-23T17:10:23.006Z,53.71
2023-01-23T17:12:51.938Z,53.75
2023-01-23T17:15:28.251Z,53.82
2023-01-23T17:18:19.913Z,54.29
2023-01-23T17:20:47.035Z,54.48
2023-01-23T17:23:17.212Z,54.70
2023-01-23T17:25:59.879Z,54.84
2023-01-23T17:28:27.728Z,54.75
2023-01-23T17:30:58.299Z,55.02
2023-01-23T17:33:30.432Z,54.85
2023-01-23T17:35:57.191Z,54.69
2023-01-23T17:38:24.354Z,54.63
2023-01-23T17:40:51.226Z,54.71
2023-01-23T17:43:21.212Z,54.76
2023-01-23T17:45:49.598Z,54.71
2023-01-23T17:48:21.662Z,54.77
2023-01-23T17:50:51.026Z,54.98
2023-01-23T17:53:20.502Z,55.16
2023-01-23T17:55:51.491Z,55.06
2023-01-23T17:58:20.512Z,55.30
2023-01-23T18:00:49.379Z,55.18
2023-01-23T18:03:17.048Z,55.24
2023-01-23T18:05:43.807Z,55.49
2023-01-23T18:08:10.836Z,55.52
2023-01-23T18:10:37.516Z,55.59
2023-01-23T18:13:06.621Z,55.67
2023-01-23T18:15:39.431Z,55.58
2023-01-23T18:18:09.322Z,55.39
2023-01-23T18:20:38.672Z,55.27
2023-01-23T18:23:05.938Z,55.05
2023-01-23T18:25:35.956Z,54.87
2023-01-23T18:28:08.574Z,54.47
2023-01-23T18:30:38.729Z,54.73
2023-01-23T18:33:17.635Z,54.72
2023-01-23T18:36:02.917Z,55.01
2023-01-23T18:38:44.154Z,54.85
2023-01-23T18:41:19.307Z,54.96
2023-01-23T18:44:04.446Z,54.99
2023-01-23T18:46:31.255Z,55.01
2023-01-23T18:48:58.089Z,55.06
2023-01-23T18:51:24.940Z,55.17
2023-01-23T18:54:00.837Z,55.33
2023-01-23T18:56:46.017Z,55.34
2023-01-23T18:59:22.387Z,55.29
2023-01-23T19:01:56.066Z,55.54
2023-01-23T19:04:30.832Z,55.78
2023-01-23T19:07:00.132Z,55.96
2023-01-23T19:09:31.725Z,55.96
2023-01-23T19:12:01.919Z,55.89
2023-01-23T19:14:28.976Z,56.21
2023-01-23T19:17:05.451Z,56.11
2023-01-23T19:19:33.002Z,56.00
2023-01-23T19:22:05.011Z,56.17
2023-01-23T19:24:31.907Z,56.26
2023-01-23T19:26:59.025Z,56.38
2023-01-23T19:29:27.949Z,56.41
2023-01-23T19:32:04.749Z,56.54
2023-01-23T19:34:35.794Z,56.55
2023-01-23T19:37:03.259Z,56.60
2023-01-23T19:39:30.813Z,56.96
2023-01-23T19:42:00.377Z,56.95
2023-01-23T19:44:29.105Z,56.90
2023-01-23T19:46:56.005Z,57.11
2023-01-23T19:49:25.380Z,57.27
2023-01-23T19:51:52.050Z,57.37
2023-01-23T19:54:19.293Z,57.45
2023-01-23T19:56:45.985Z,57.32
2023-01-23T19:59:15.153Z,57.41
2023-01-23T20:01:46.786Z,57.55
2023-01-23T20:04:20.305Z,57.54
2023-01-23T20:06:48.930Z,57.46
2023-01-23T20:09:15.625Z,57.47
2023-01-23T20:11:42.827Z,57.22
2023-01-23T20:14:09.707Z,57.10
2023-01-23T20:16:40.429Z,56.96
2023-01-23T20:19:07.712Z,57.13
2023-01-23T20:21:34.577Z,56.86
2023-01-23T20:24:04.034Z,56.91
2023-01-23T20:26:31.095Z,56.73
2023-01-23T20:29:00.179Z,56.49
2023-01-23T20:31:29.640Z,56.34
2023-01-23T20:33:58.819Z,56.29
2023-01-23T20:36:25.774Z,56.25
2023-01-23T20:38:55.940Z,56.59
2023-01-23T20:41:25.096Z,56.78
2023-01-23T20:43:54.172Z,56.66
2023-01-23T20:46:23.982Z,56.56
2023-01-23T20:48:53.587Z,56.40
2023-01-23T20:51:20.222Z,56.31
2023-01-23T20:53:50.475Z,56.43
2023-01-23T20:56:20.663Z,56.40
2023-01-23T20:59:08.723Z,56.68
2023-01-23T21:01:54.937Z,56.54
2023-01-23T21:04:21.885Z,56.33
2023-01-23T21:06:48.652Z,56.23
2023-01-23T21:09:17.594Z,56.22
2023-01-23T21:11:44.497Z,56.24
2023-01-23T21:14:16.084Z,56.18
2023-01-23T21:16:42.947Z,56.31
2023-01-23T21:19:09.898Z,56.44
2023-01-23T21:21:36.619Z,56.35
2023-01-23T21:24:06.162Z,56.08
2023-01-23T21:26:33.786Z,55.98
2023-01-23T21:29:00.602Z,56.20
2023-01-23T21:31:28.392Z,56.08
2023-01-23T21:33:55.010Z,56.06
2023-01-23T21:36:22.935Z,56.30
2023-01-23T21:38:51.280Z,56.29
2023-01-23T21:41:18.219Z,56.46
2023-01-23T21:43:47.176Z,56.45
2023-01-23T21:46:14.045Z,56.34
2023-01-23T21:48:43.095Z,56.49
2023-01-23T21:51:11.109Z,56.28
2023-01-23T21:53:40.643Z,56.42
2023-01-23T21:56:10.034Z,56.64
2023-01-23T21:58:37.257Z,56.55
2023-01-23T22:01:26.739Z,56.43
2023-01-23T22:03:53.404Z,56.22
2023-01-23T22:06:20.190Z,56.33
2023-01-23T22:08:49.683Z,56.51
2023-01-23T22:11:18.427Z,57.01
2023-01-23T22:13:45.115Z,57.15
2023-01-23T22:16:14.567Z,57.19
2023-01-23T22:18:41.329Z,57.16
2023-01-23T22:21:10.746Z,57.19
2023-01-23T22:23:39.890Z,57.34
2023-01-23T22:26:09.392Z,57.67
2023-01-23T22:28:38.356Z,58.01
2023-01-23T22:31:06.639Z,57.94
2023-01-23T22:33:40.352Z,58.18
2023-01-23T22:36:10.890Z,58.17
2023-01-23T22:38:37.717Z,58.20
2023-01-23T22:41:04.924Z,58.30
2023-01-23T22:43:34.360Z,58.38
2023-01-23T22:46:05.297Z,58.61
2023-01-23T22:48:32.196Z,59.12
2023-01-23T22:51:04.688Z,58.79
2023-01-23T22:53:31.472Z,58.76
2023-01-23T22:55:58.385Z,58.83
2023-01-23T22:58:25.176Z,58.92
2023-01-23T23:00:53.475Z,58.53
2023-01-23T23:03:22.979Z,59.00
2023-01-23T23:05:58.498Z,59.38
2023-01-23T23:08:27.693Z,59.29
2023-01-23T23:11:04.689Z,59.52
2023-01-23T23:13:31.631Z,59.70
2023-01-23T23:15:58.688Z,59.69
2023-01-23T23:18:25.275Z,59.81
2023-01-23T23:20:54.370Z,59.96
2023-01-23T23:23:21.511Z,60.00
2023-01-23T23:25:53.235Z,60.48
2023-01-23T23:28:20.066Z,60.26
2023-01-23T23:30:46.653Z,60.27
2023-01-23T23:33:13.309Z,60.33
2023-01-23T23:35:40.023Z,60.37
2023-01-23T23:38:09.885Z,60.18
2023-01-23T23:40:36.668Z,59.89
2023-01-23T23:43:05.869Z,59.88
2023-01-23T23:45:34.928Z,59.82
2023-01-23T23:48:03.904Z,59.67
2023-01-23T23:50:34.601Z,59.47
2023-01-23T23:53:01.214Z,59.33
2023-01-23T23:55:30.668Z,58.86
2023-01-23T23:57:59.684Z,59.01
